createdAt,value
2022-10-03T00:02:39.776Z,101991.66
2022-10-03T00:08:15.872Z,101992.50
2022-10-03T00:13:31.782Z,101991.97
2022-10-03T00:19:05.980Z,102007.63
2022-10-03T00:24:16.465Z,102007.81
2022-10-03T00:29:35.026Z,102021.13
2022-10-03T00:35:15.365Z,102024.97
2022-10-03T00:40:19.363Z,102014.00
2022-10-03T00:46:01.223Z,102019.63
2022-10-03T00:51:05.400Z,102032.59
2022-10-03T00:56:34.823Z,102027.28
2022-10-03T01:01:48.613Z,102040.91
2022-10-03T01:07:05.648Z,102041.53
2022-10-03T01:12:28.959Z,102040.88
2022-10-03T01:18:02.439Z,102052.50
2022-10-03T01:23:34.723Z,102042.88
2022-10-03T01:29:06.560Z,102047.00
2022-10-03T01:34:20.052Z,102044.50
2022-10-03T01:39:27.340Z,102039.19
2022-10-03T01:44:44.128Z,102042.66
2022-10-03T01:49:54.359Z,102037.19
2022-10-03T01:55:04.828Z,102037.69
2022-10-03T02:00:13.056Z,102050.59
2022-10-03T02:05:37.441Z,102055.06
2022-10-03T02:10:44.413Z,102061.50
2022-10-03T02:16:21.982Z,102077.09
2022-10-03T02:21:30.390Z,102076.56
2022-10-03T02:27:02.327Z,102077.91
2022-10-03T02:32:22.127Z,102064.25
2022-10-03T02:37:45.143Z,102071.56
2022-10-03T02:42:46.580Z,102068.22
2022-10-03T02:48:37.907Z,102059.91
2022-10-03T02:53:56.088Z,102064.84
2022-10-03T02:59:44.518Z,102064.34
2022-10-03T03:05:15.421Z,102069.81
2022-10-03T03:10:41.824Z,102071.78
2022-10-03T03:16:19.411Z,102088.72
2022-10-03T03:21:44.211Z,102091.38
2022-10-03T03:26:54.828Z,102097.03
2022-10-03T03:32:02.442Z,102099.19
2022-10-03T03:37:20.149Z,102111.47
2022-10-03T03:42:42.894Z,102094.72
2022-10-03T03:48:03.592Z,102110.28
2022-10-03T03:53:26.475Z,102097.88
2022-10-03T03:58:45.359Z,102112.94
2022-10-03T04:04:34.242Z,102114.63
2022-10-03T04:09:53.915Z,102108.00
2022-10-03T04:15:29.470Z,102120.13
2022-10-03T04:20:42.894Z,102124.28
2022-10-03T04:25:54.444Z,102113.66
2022-10-03T04:31:34.441Z,102127.16
2022-10-03T04:37:14.240Z,102126.69
2022-10-03T04:42:44.458Z,102132.50
2022-10-03T04:47:55.479Z,102125.06
2022-10-03T04:53:12.596Z,102118.75
2022-10-03T04:58:19.848Z,102124.38
2022-10-03T05:03:54.330Z,102113.25
2022-10-03T05:09:01.202Z,102127.31
2022-10-03T05:14:40.154Z,102127.25
2022-10-03T05:20:21.598Z,102127.50
2022-10-03T05:25:40.078Z,102131.78
2022-10-03T05:30:41.378Z,102146.31
2022-10-03T05:35:54.772Z,102141.00
2022-10-03T05:40:59.219Z,102148.00
2022-10-03T05:46:11.347Z,102153.00
2022-10-03T05:51:51.152Z,102157.19
2022-10-03T05:57:17.135Z,102158.84
2022-10-03T06:02:55.688Z,102160.19
2022-10-03T06:08:09.140Z,102177.16
2022-10-03T06:13:14.035Z,102176.72
2022-10-03T06:19:00.686Z,102167.28
2022-10-03T06:24:20.044Z,102167.19
2022-10-03T06:29:33.424Z,102176.50
2022-10-03T06:34:43.806Z,102179.19
2022-10-03T06:40:17.987Z,102189.19
2022-10-03T06:45:19.340Z,102188.59
2022-10-03T06:50:48.751Z,102176.53
2022-10-03T06:56:08.682Z,102187.56
2022-10-03T07:01:12.859Z,102191.63
2022-10-03T07:06:40.499Z,102199.81
2022-10-03T07:11:44.779Z,102201.50
2022-10-03T07:16:49.108Z,102199.19
2022-10-03T07:22:19.485Z,102204.53
2022-10-03T07:27:20.753Z,102210.53
2022-10-03T07:32:37.384Z,102217.69
2022-10-03T07:38:01.764Z,102221.81
2022-10-03T07:43:34.039Z,102231.59
2022-10-03T07:48:44.996Z,102223.53
2022-10-03T07:53:49.143Z,102235.13
2022-10-03T07:59:28.385Z,102241.94
2022-10-03T08:04:54.341Z,102255.06
2022-10-03T08:10:19.070Z,102237.25
2022-10-03T08:15:35.544Z,102248.56
2022-10-03T08:20:44.085Z,102249.28
2022-10-03T08:25:51.349Z,102265.69
2022-10-03T08:31:11.672Z,102267.72
2022-10-03T08:36:33.340Z,102261.81
2022-10-03T08:41:53.494Z,102266.69
2022-10-03T08:47:09.772Z,102255.75
2022-10-03T08:52:38.270Z,102259.53
2022-10-03T08:58:04.898Z,102264.38
2022-10-03T09:03:35.303Z,102256.94
2022-10-03T09:08:45.498Z,102256.28
2022-10-03T09:14:22.975Z,102250.84
2022-10-03T09:20:08.044Z,102267.09
2022-10-03T09:25:33.810Z,102260.00
2022-10-03T09:31:05.982Z,102256.97
2022-10-03T09:36:31.666Z,102265.06
2022-10-03T09:42:05.318Z,102261.41
2022-10-03T09:47:28.276Z,102249.09
2022-10-03T09:53:08.699Z,102243.66
2022-10-03T09:58:28.811Z,102244.03
2022-10-03T10:03:54.775Z,102243.41
2022-10-03T10:09:17.530Z,102236.69
2022-10-03T10:14:48.134Z,102245.56
2022-10-03T10:19:59.705Z,102257.88
2022-10-03T10:25:20.007Z,102243.50
2022-10-03T10:30:42.647Z,102239.44
2022-10-03T10:36:35.396Z,102225.06
2022-10-03T10:41:58.822Z,102226.25
2022-10-03T10:47:20.837Z,102226.44
2022-10-03T10:52:44.989Z,102219.50
2022-10-03T10:58:29.448Z,102222.03
2022-10-03T11:04:17.656Z,102221.19
2022-10-03T11:09:32.582Z,102215.19
2022-10-03T11:14:55.735Z,102212.31
2022-10-03T11:20:39.607Z,102223.28
2022-10-03T11:26:04.258Z,102211.22
2022-10-03T11:31:41.011Z,102209.22
2022-10-03T11:37:05.976Z,102208.56
2022-10-03T11:43:02.528Z,102196.72
2022-10-03T11:48:49.103Z,102198.94
2022-10-03T11:54:30.065Z,102194.38
2022-10-03T12:00:08.289Z,102192.69
2022-10-03T12:05:47.745Z,102189.00
2022-10-03T12:11:44.084Z,102194.81
2022-10-03T12:17:47.698Z,102186.53
2022-10-03T12:23:26.124Z,102184.59
2022-10-03T12:28:41.838Z,102180.66
2022-10-03T12:40:18.097Z,102174.19
2022-10-03T12:45:57.716Z,102176.97
2022-10-03T12:57:13.065Z,102162.81
2022-10-03T13:02:51.664Z,102165.03
2022-10-03T13:08:28.200Z,102168.41
2022-10-03T13:14:07.375Z,102172.25
2022-10-03T13:19:53.028Z,102164.34
2022-10-03T13:26:24.567Z,102157.97
2022-10-03T13:31:31.758Z,102157.13
2022-10-03T13:37:03.975Z,102156.19
2022-10-03T13:42:28.005Z,102143.31
2022-10-03T13:53:35.509Z,102141.06
2022-10-03T14:04:51.633Z,102145.63
2022-10-03T14:10:20.917Z,102128.09
2022-10-03T14:16:14.387Z,102116.19
2022-10-03T14:33:43.801Z,102115.53
2022-10-03T14:45:09.098Z,102113.31
2022-10-03T14:56:39.418Z,102099.41
2022-10-03T15:14:24.222Z,102085.28
2022-10-03T15:19:55.590Z,102078.47
2022-10-03T15:31:25.047Z,102074.91
2022-10-03T15:36:41.141Z,102075.66
2022-10-03T15:43:16.689Z,102065.16
2022-10-03T16:12:10.569Z,102049.06
2022-10-03T16:45:48.226Z,102019.41
2022-10-03T16:51:03.987Z,102018.22
2022-10-03T17:01:49.735Z,102007.72
2022-10-03T17:06:56.937Z,101993.00
2022-10-03T17:12:00.693Z,101997.72
2022-10-03T17:17:33.340Z,101997.69
2022-10-03T17:22:43.018Z,102004.19
2022-10-03T17:27:48.544Z,101999.19
2022-10-03T17:32:57.309Z,101989.81
2022-10-03T17:38:48.540Z,101988.75
2022-10-03T17:43:45.277Z,101993.59
2022-10-03T17:49:03.488Z,101991.88
2022-10-03T17:54:11.952Z,101986.63
2022-10-03T17:59:19.560Z,101988.59
2022-10-03T18:04:36.065Z,101982.50
2022-10-03T18:09:46.458Z,101993.56
2022-10-03T18:15:06.066Z,101990.56
2022-10-03T18:20:20.874Z,101991.88
2022-10-03T18:26:15.401Z,101988.72
2022-10-03T18:31:22.701Z,101981.63
2022-10-03T18:36:31.376Z,101975.59
2022-10-03T18:41:33.815Z,101978.19
2022-10-03T18:46:42.931Z,101978.94
2022-10-03T18:51:57.710Z,101972.69
2022-10-03T18:57:23.561Z,101976.31
2022-10-03T19:02:37.960Z,101976.31
2022-10-03T19:07:49.934Z,101962.50
2022-10-03T19:13:18.981Z,101956.91
2022-10-03T19:18:42.083Z,101959.13
2022-10-03T19:23:46.644Z,101960.53
2022-10-03T19:28:50.285Z,101960.88
2022-10-03T19:33:58.169Z,101967.41
2022-10-03T19:39:00.586Z,101983.00
2022-10-03T19:44:07.654Z,101984.19
2022-10-03T19:49:45.493Z,101973.25
2022-10-03T19:54:54.620Z,101971.97
2022-10-03T20:00:03.595Z,101973.16
2022-10-03T20:05:06.053Z,101970.84
2022-10-03T20:10:32.666Z,101980.09
2022-10-03T20:15:41.297Z,101972.44
2022-10-03T20:20:42.856Z,101977.13
2022-10-03T20:25:52.532Z,101983.84
2022-10-03T20:30:54.109Z,101984.59
2022-10-03T20:35:58.487Z,101973.44
2022-10-03T20:41:11.633Z,101966.75
2022-10-03T20:46:33.524Z,101976.50
2022-10-03T20:51:43.692Z,101974.91
2022-10-03T20:56:54.449Z,101959.63
2022-10-03T21:02:03.504Z,101956.19
2022-10-03T21:07:10.803Z,101960.41
2022-10-03T21:12:34.171Z,101959.13
2022-10-03T21:17:36.455Z,101959.81
2022-10-03T21:22:38.575Z,101948.88
2022-10-03T21:27:48.682Z,101938.75
2022-10-03T21:33:02.330Z,101947.28
2022-10-03T21:38:32.653Z,101948.50
2022-10-03T21:43:58.545Z,101940.19
2022-10-03T21:49:44.449Z,101947.72
2022-10-03T21:55:33.590Z,101935.94
2022-10-03T22:01:13.060Z,101931.50
2022-10-03T22:06:23.504Z,101923.41
2022-10-03T22:11:30.022Z,101927.41
2022-10-03T22:16:55.486Z,101937.25
2022-10-03T22:22:16.989Z,101926.97
2022-10-03T22:27:23.715Z,101935.13
2022-10-03T22:32:28.652Z,101930.97
2022-10-03T22:37:30.196Z,101927.00
2022-10-03T22:42:40.656Z,101928.38
2022-10-03T22:47:44.908Z,101932.41
2022-10-03T22:52:50.248Z,101925.56
2022-10-03T22:57:53.185Z,101921.78
2022-10-03T23:03:09.857Z,101922.16
2022-10-03T23:08:37.384Z,101916.88
2022-10-03T23:13:44.457Z,101913.72
2022-10-03T23:19:00.765Z,101898.28
2022-10-03T23:24:13.255Z,101887.13
2022-10-03T23:29:16.387Z,101875.69
2022-10-03T23:34:32.809Z,101883.72
2022-10-03T23:39:35.758Z,101870.09
2022-10-03T23:44:49.474Z,101847.66
2022-10-03T23:49:52.271Z,101847.50
2022-10-03T23:54:57.147Z,101850.69
2022-10-03T23:59:58.543Z,101853.53
